Pagrindinis puslapis
METAR-TAF:

METAR-TAF

Oro uostai :

Verona, Italija

platuma: 45-23N, ilguma: 010-52E, Aukštis: 67 m

Dabartinis oras

Ataskaita buvo paskelbta 11 minutes, ne 23:50 UTC
Vėjas 3 kt iš Šiaurės
Temperatūra 7°C
Drėgmė 57%
Slėgis 1029 hPa
Matomumas 10 km arba daugiau

METAR: LIPX 072350Z AUTO 36003KT 9999 NCD 07/M01 Q1029

Laikas: 02:01 (00:01 UTC)

Prognozė

Ataskaita buvo paskelbta 7 valandos ir 1 minutes, ne 17:00 UTC
Prognozė galioja nuo 07 metu 18 UTC su 08 metu 03 UTC
Vėjas 5 kt nuo kintamojo kryptimis
Matomumas 10 km arba daugiau
nėra debesų žemiau 1500 m ir nėra kamuolinių lietaus debesų

TAF: LIPX 071700Z 0718/0803 VRB05KT CAVOK

Orai ataskaitas ir orų prognozės (METAR, TAF).

turimą stotys yra geltonos ir raudonos taškus žemėlapyje.

Perkelti pele per norėdami pamatyti stoties vardą.

Tada spustelėkite, norėdami matyti oro stebėjimo ir prognozės.

Norėdami pakeisti žemėlapį: spustelėkite ant žalios mygtukų su juodo kryžiaus žemyn,; žalią mygtuką su brūkšneliu, jei norite nutolinti; arba žalių rodyklių gretimoms žemėlapius.


METAR-TAF: